• Join FlightAware (Why Join?)
  • Login
  • US Flag 
12:30AM EDT


 

Airport Tracker/Info


-or-


 

Live Flight TrackerFlight Track Log ✈ DAL3673 ✈ 16-Jul-2013 ✈ KMSP - KLSE

Flight Track Log - Related Links

Times and Time Zones

All times are in EDT time to prevent confusion due to time zone crossing. See the DAL3673 flight status page for this flight to view local times or setup timezone preferences in your user account.

Time Position Orientation Groundspeed Altitude Reporting Facility
EDT Latitude Longitude Course Direction KTS MPH feet Rate Location/Type
02:32PM 44.8500 -93.2167 119° Southeast 167 192 2,100  Level Minneapolis TRACON
02:33PM 44.8267 -93.1767 129° Southeast 202 232 3,300 1,620 Climbing Minneapolis Center
02:34PM 44.7822 -93.0983 129° Southeast 266 306 5,000 1,980 Climbing Minneapolis Center
02:35PM 44.7224 -92.9000 139° Southeast  Level Estimated
02:35PM 44.7206 -93.0264 140° Southeast 284 327 7,400  Level Minneapolis Center
02:36PM 44.6319 -92.8709 167° South  Level FlightAware Approximate
02:36PM 44.6578 -92.9542 141° Southeast 290 334 9,800  Level Minneapolis Center
02:37PM 44.5820 -92.7610 141° Southeast  Level Estimated
02:37PM 44.5972 -92.8739 137° Southeast 301 346 11,100  Level Minneapolis Center
02:38PM 44.5320 -92.6513 119° Southeast  Level Estimated
02:38PM 44.5322 -92.7258 122° Southeast 374 430 11,000  Level Minneapolis Center
02:39PM 44.4747 -92.5936 121° Southeast 395 455 11,000  Level Minneapolis Center
02:40PM 44.4211 -92.4697 121° Southeast 374 430 11,000  Level Minneapolis Center
02:41PM 44.3744 -92.3492 118° Southeast 357 411 11,000  Level Minneapolis Center
02:42PM 44.3386 -92.2139 110° East 364 419 11,000  Level Minneapolis Center
02:44PM 44.2878 -92.0139 109° East 387 445 11,000 -540 Level Minneapolis Center
02:45PM 44.2583 -91.8869 108° East 343 395 9,800 -1,200 Descending Minneapolis Center
02:46PM 44.2303 -91.7828 111° Southeast 294 338 8,400 -1,320 Descending Minneapolis Center
02:47PM 44.1781 -91.6667 122° Southeast 287 330 6,800 -1,320 Descending Minneapolis Center
02:48PM 44.1286 -91.5772 128° Southeast 279 321 5,700 -900 Descending Minneapolis Center
02:49PM 44.0775 -91.4917 130° Southeast 274 315 5,000 -960 Descending Minneapolis Center
02:50PM 44.0297 -91.4094 129° Southeast 261 300 3,800 -1,200 Descending Minneapolis Center